createdAt,value
2023-02-15T00:03:24.440Z,34.85
2023-02-15T00:08:47.138Z,26.33
2023-02-15T00:14:09.503Z,28.80
2023-02-15T00:19:33.318Z,29.47
2023-02-15T00:24:55.578Z,31.80
2023-02-15T00:30:18.478Z,33.18
2023-02-15T00:35:40.871Z,36.13
2023-02-15T00:41:08.439Z,33.83
2023-02-15T00:46:30.905Z,34.25
2023-02-15T00:51:53.240Z,37.05
2023-02-15T00:57:18.726Z,37.23
2023-02-15T01:02:41.164Z,39.42
2023-02-15T01:08:04.295Z,44.73
2023-02-15T01:13:28.156Z,54.90
2023-02-15T01:18:50.794Z,57.70
2023-02-15T01:24:13.319Z,62.45
2023-02-15T01:29:36.489Z,59.95
2023-02-15T01:34:58.911Z,62.03
2023-02-15T01:40:25.589Z,61.33
2023-02-15T01:45:49.773Z,61.13
2023-02-15T01:51:15.362Z,62.53
2023-02-15T01:56:41.568Z,62.15
2023-02-15T02:02:06.310Z,64.17
2023-02-15T02:07:33.788Z,59.93
2023-02-15T02:13:00.463Z,60.73
2023-02-15T02:18:47.153Z,62.10
2023-02-15T02:24:37.947Z,58.90
2023-02-15T02:30:35.531Z,56.88
2023-02-15T02:36:36.229Z,54.35
2023-02-15T02:42:26.260Z,50.63
2023-02-15T02:48:23.619Z,52.23
2023-02-15T02:53:47.860Z,49.53
2023-02-15T02:59:23.606Z,46.28
2023-02-15T03:04:50.719Z,45.48
2023-02-15T03:10:16.589Z,45.63
2023-02-15T03:16:01.656Z,44.53
2023-02-15T03:21:28.884Z,41.48
2023-02-15T03:26:54.501Z,43.17
2023-02-15T03:32:20.198Z,41.00
2023-02-15T03:37:49.762Z,38.30
2023-02-15T03:43:28.932Z,35.87
2023-02-15T03:48:58.970Z,38.98
2023-02-15T04:00:48.330Z,34.73
2023-02-15T04:06:10.717Z,36.00
2023-02-15T04:11:33.026Z,35.27
2023-02-15T04:16:55.400Z,36.40
2023-02-15T04:22:36.296Z,36.47
2023-02-15T04:28:01.778Z,35.30
2023-02-15T04:33:24.186Z,36.30
2023-02-15T04:38:46.802Z,37.00
2023-02-15T04:44:09.189Z,37.97
2023-02-15T04:49:31.393Z,38.97
2023-02-15T04:54:53.991Z,40.43
2023-02-15T05:00:18.639Z,39.07
2023-02-15T05:05:41.754Z,55.67
2023-02-15T05:11:05.112Z,55.93
2023-02-15T05:16:29.280Z,45.27
2023-02-15T05:21:52.685Z,39.13
2023-02-15T05:27:33.331Z,37.27
2023-02-15T05:32:55.634Z,45.93
2023-02-15T05:38:18.487Z,38.93
2023-02-15T05:43:41.289Z,37.37
2023-02-15T05:49:03.576Z,37.23
2023-02-15T05:54:26.017Z,37.70
2023-02-15T05:59:48.373Z,36.73
2023-02-15T06:05:11.806Z,36.80
2023-02-15T06:10:34.369Z,37.40
2023-02-15T06:15:56.776Z,36.70
2023-02-15T06:21:19.143Z,38.10
2023-02-15T06:26:41.374Z,41.28
2023-02-15T06:32:03.649Z,40.03
2023-02-15T06:37:25.924Z,38.35
2023-02-15T06:42:51.857Z,39.95
2023-02-15T06:48:14.247Z,40.70
2023-02-15T06:53:37.200Z,42.67
2023-02-15T06:59:00.144Z,41.15
2023-02-15T07:04:23.280Z,38.73
2023-02-15T07:09:45.918Z,38.03
2023-02-15T07:15:08.936Z,37.27
2023-02-15T07:20:39.096Z,35.23
2023-02-15T07:26:07.713Z,36.93
2023-02-15T07:31:30.399Z,54.20
2023-02-15T07:36:53.360Z,37.73
2023-02-15T07:42:15.736Z,38.17
2023-02-15T07:47:38.024Z,38.45
2023-02-15T07:53:00.386Z,36.63
2023-02-15T07:58:24.458Z,38.10
2023-02-15T08:03:46.935Z,37.77
2023-02-15T08:09:13.621Z,37.67
2023-02-15T08:14:37.137Z,36.38
2023-02-15T08:20:00.049Z,36.90
2023-02-15T08:25:22.823Z,39.27
2023-02-15T08:30:45.098Z,38.17
2023-02-15T08:36:14.500Z,37.37
2023-02-15T08:41:46.246Z,37.07
2023-02-15T08:47:08.569Z,38.03
2023-02-15T08:52:31.278Z,37.03
2023-02-15T08:57:55.248Z,36.57
2023-02-15T09:03:17.628Z,33.58
2023-02-15T09:08:40.591Z,31.60
2023-02-15T09:14:05.672Z,31.10
2023-02-15T09:19:30.772Z,29.50
2023-02-15T09:24:53.145Z,28.25
2023-02-15T09:30:16.314Z,28.13
2023-02-15T09:35:38.718Z,25.93
2023-02-15T09:41:08.919Z,26.33
2023-02-15T09:46:51.152Z,25.17
2023-02-15T09:52:18.230Z,27.20
2023-02-15T09:57:48.100Z,28.32
2023-02-15T10:08:49.067Z,26.30
2023-02-15T10:15:01.613Z,25.87
2023-02-15T10:20:48.499Z,26.87
2023-02-15T10:26:36.889Z,27.17
2023-02-15T10:32:31.877Z,32.33
2023-02-15T10:38:19.185Z,33.47
2023-02-15T10:44:07.247Z,31.23
2023-02-15T10:50:08.034Z,31.03
2023-02-15T10:55:38.158Z,33.47
2023-02-15T11:01:34.297Z,31.30
2023-02-15T11:07:01.170Z,28.27
2023-02-15T11:12:28.235Z,29.17
2023-02-15T11:17:55.422Z,30.30
2023-02-15T11:23:23.853Z,32.23
2023-02-15T11:28:56.957Z,35.67
2023-02-15T11:34:30.305Z,38.70
2023-02-15T11:39:55.598Z,33.67
2023-02-15T11:45:46.848Z,33.10
2023-02-15T11:51:10.198Z,31.43
2023-02-15T11:56:37.764Z,35.57
2023-02-15T12:02:02.596Z,35.27
2023-02-15T12:07:36.631Z,36.73
2023-02-15T12:13:17.422Z,38.57
2023-02-15T12:18:54.884Z,41.27
2023-02-15T12:24:30.134Z,41.83
2023-02-15T12:30:06.862Z,37.97
2023-02-15T12:35:41.901Z,38.10
2023-02-15T12:41:15.571Z,38.20
2023-02-15T12:46:47.414Z,41.80
2023-02-15T12:52:29.592Z,40.77
2023-02-15T12:57:52.538Z,44.97
2023-02-15T13:03:18.753Z,47.60
2023-02-15T13:08:48.376Z,47.50
2023-02-15T13:14:35.656Z,45.40
2023-02-15T13:20:06.462Z,44.17
2023-02-15T13:25:36.457Z,42.70
2023-02-15T13:36:58.902Z,49.27
2023-02-15T13:43:09.148Z,43.73
2023-02-15T13:49:04.920Z,46.50
2023-02-15T13:54:53.186Z,47.50
2023-02-15T14:00:29.247Z,48.00
2023-02-15T14:06:24.410Z,44.90
2023-02-15T14:12:23.527Z,41.57
2023-02-15T14:18:10.075Z,41.70
2023-02-15T14:23:50.351Z,42.47
2023-02-15T14:34:55.151Z,43.03
2023-02-15T14:40:52.898Z,46.43
2023-02-15T14:46:29.064Z,51.40
2023-02-15T14:52:06.694Z,49.77
2023-02-15T14:57:35.797Z,43.63
2023-02-15T15:03:03.628Z,42.60
2023-02-15T15:08:41.722Z,42.60
2023-02-15T15:14:18.858Z,40.97
2023-02-15T15:20:03.212Z,42.83
2023-02-15T15:25:53.896Z,43.53
2023-02-15T15:43:09.900Z,47.70
2023-02-15T15:48:52.225Z,49.37
2023-02-15T15:54:24.600Z,45.10
2023-02-15T15:59:50.330Z,44.95
2023-02-15T16:05:22.799Z,48.57
2023-02-15T16:10:47.609Z,48.00
2023-02-15T16:16:12.022Z,50.03
2023-02-15T16:21:39.319Z,48.47
2023-02-15T16:27:26.185Z,47.40
2023-02-15T16:32:50.359Z,48.15
2023-02-15T16:38:15.773Z,52.85
2023-02-15T16:43:41.553Z,52.53
2023-02-15T16:49:08.544Z,53.73
2023-02-15T16:54:35.380Z,58.55
2023-02-15T17:00:15.382Z,54.25
2023-02-15T17:05:41.844Z,56.43
2023-02-15T17:11:23.947Z,58.25
2023-02-15T17:17:00.119Z,57.60
2023-02-15T17:22:30.731Z,55.12
2023-02-15T17:27:55.608Z,55.63
2023-02-15T17:33:30.344Z,52.57
2023-02-15T17:39:07.988Z,55.10
2023-02-15T17:44:30.350Z,52.97
2023-02-15T17:49:53.088Z,51.83
2023-02-15T17:55:38.769Z,51.80
2023-02-15T18:01:23.232Z,57.30
2023-02-15T18:07:06.329Z,61.97
2023-02-15T18:12:44.064Z,60.50
2023-02-15T18:18:06.954Z,54.63
2023-02-15T18:23:30.976Z,52.97
2023-02-15T18:28:53.375Z,52.88
2023-02-15T18:34:20.324Z,51.68
2023-02-15T18:39:49.722Z,51.73
2023-02-15T18:45:30.446Z,53.50
2023-02-15T18:50:54.250Z,56.48
2023-02-15T18:56:20.817Z,68.33
2023-02-15T19:01:43.666Z,57.15
2023-02-15T19:07:07.442Z,51.98
2023-02-15T19:12:31.454Z,51.77
2023-02-15T19:17:54.192Z,50.12
2023-02-15T19:23:20.757Z,52.97
2023-02-15T19:28:51.633Z,49.67
2023-02-15T19:34:19.977Z,50.00
2023-02-15T19:39:51.534Z,49.48
2023-02-15T19:45:18.186Z,51.07
2023-02-15T19:50:46.651Z,48.48
2023-02-15T19:56:09.355Z,50.15
2023-02-15T20:01:31.691Z,49.20
2023-02-15T20:06:54.419Z,49.47
2023-02-15T20:12:19.091Z,60.88
2023-02-15T20:17:41.706Z,50.95
2023-02-15T20:23:05.350Z,50.80
2023-02-15T20:28:32.109Z,51.43
2023-02-15T20:33:55.147Z,49.87
2023-02-15T20:39:29.584Z,49.90
2023-02-15T20:44:51.962Z,50.20
2023-02-15T20:50:14.304Z,47.50
2023-02-15T20:55:42.993Z,55.57
2023-02-15T21:01:06.483Z,46.17
2023-02-15T21:06:30.384Z,46.13
2023-02-15T21:11:52.876Z,46.03
2023-02-15T21:17:17.197Z,47.93
2023-02-15T21:22:41.492Z,45.67
2023-02-15T21:28:03.793Z,46.30
2023-02-15T21:33:26.528Z,46.83
2023-02-15T21:38:49.819Z,46.13
2023-02-15T21:44:40.305Z,47.50
2023-02-15T21:55:21.176Z,47.00
2023-02-15T22:00:44.243Z,48.37
2023-02-15T22:06:06.622Z,46.57
2023-02-15T22:11:34.220Z,47.10
2023-02-15T22:16:56.659Z,71.23
2023-02-15T22:22:18.957Z,48.73
2023-02-15T22:27:45.165Z,49.10
2023-02-15T22:33:10.637Z,47.93
2023-02-15T22:38:32.339Z,45.93
2023-02-15T22:44:00.523Z,47.77
2023-02-15T22:49:25.040Z,47.33
2023-02-15T22:54:47.284Z,46.13
2023-02-15T23:00:11.079Z,46.27
2023-02-15T23:05:42.192Z,48.77
2023-02-15T23:11:07.542Z,47.93
2023-02-15T23:16:31.465Z,47.10
2023-02-15T23:21:55.901Z,49.60
2023-02-15T23:27:40.897Z,47.67
2023-02-15T23:33:04.780Z,48.30
2023-02-15T23:38:39.393Z,46.97
2023-02-15T23:44:10.501Z,47.33
2023-02-15T23:49:34.163Z,49.17
2023-02-15T23:54:56.398Z,48.83
